createdAt,value
2023-01-17T00:01:50.365Z,93762.47
2023-01-17T00:04:36.189Z,93750.72
2023-01-17T00:07:21.608Z,93737.84
2023-01-17T00:09:54.709Z,93731.34
2023-01-17T00:12:22.587Z,93741.44
2023-01-17T00:14:49.654Z,93736.28
2023-01-17T00:17:16.883Z,93729.00
2023-01-17T00:20:02.247Z,93722.13
2023-01-17T00:22:50.122Z,93708.41
2023-01-17T00:25:38.782Z,93738.69
2023-01-17T00:28:06.090Z,93739.75
2023-01-17T00:30:33.565Z,93745.34
2023-01-17T00:33:01.809Z,93744.13
2023-01-17T00:35:31.249Z,93730.63
2023-01-17T00:38:07.216Z,93722.97
2023-01-17T00:40:36.118Z,93721.69
2023-01-17T00:43:22.187Z,93730.56
2023-01-17T00:46:07.926Z,93722.81
2023-01-17T00:48:54.390Z,93687.50
2023-01-17T00:51:40.973Z,93750.31
2023-01-17T00:54:26.955Z,93747.13
2023-01-17T00:57:13.244Z,93741.81
2023-01-17T00:59:58.756Z,93739.13
2023-01-17T01:02:44.787Z,93742.06
2023-01-17T01:05:32.366Z,93766.50
2023-01-17T01:08:18.459Z,93740.53
2023-01-17T01:11:05.068Z,93759.53
2023-01-17T01:13:51.456Z,93772.59
2023-01-17T01:16:38.057Z,93774.78
2023-01-17T01:19:35.400Z,93746.50
2023-01-17T01:22:20.886Z,93755.47
2023-01-17T01:25:06.362Z,93751.44
2023-01-17T01:27:52.056Z,93734.53
2023-01-17T01:30:37.586Z,93722.03
2023-01-17T01:33:21.610Z,93736.94
2023-01-17T01:35:54.054Z,93719.94
2023-01-17T01:38:23.666Z,93706.72
2023-01-17T01:40:53.358Z,93721.34
2023-01-17T01:43:42.785Z,93702.13
2023-01-17T01:46:13.379Z,93665.78
2023-01-17T01:49:06.177Z,93666.84
2023-01-17T01:51:43.300Z,93656.97
2023-01-17T01:54:25.859Z,93671.41
2023-01-17T01:56:54.779Z,93668.53
2023-01-17T01:59:23.414Z,93651.53
2023-01-17T02:01:53.206Z,93682.38
2023-01-17T02:04:21.688Z,93678.88
2023-01-17T02:06:53.946Z,93663.25
2023-01-17T02:09:20.952Z,93684.78
2023-01-17T02:11:50.275Z,93653.22
2023-01-17T02:14:22.048Z,93669.63
2023-01-17T02:17:09.708Z,93681.34
2023-01-17T02:19:52.217Z,93692.56
2023-01-17T02:22:40.632Z,93690.38
2023-01-17T02:25:10.700Z,93681.88
2023-01-17T02:27:53.095Z,93677.72
2023-01-17T02:30:52.086Z,93654.16
2023-01-17T02:33:33.774Z,93674.72
2023-01-17T02:36:44.704Z,93683.03
2023-01-17T02:39:38.085Z,93668.78
2023-01-17T02:42:10.277Z,93676.47
2023-01-17T02:44:44.465Z,93667.28
2023-01-17T02:47:26.660Z,93677.41
2023-01-17T02:50:03.539Z,93680.38
2023-01-17T02:52:55.736Z,93659.78
2023-01-17T02:55:41.081Z,93647.47
2023-01-17T02:58:39.760Z,93628.16
2023-01-17T03:01:35.012Z,93637.75
2023-01-17T03:04:12.895Z,93641.75
2023-01-17T03:06:56.744Z,93653.13
2023-01-17T03:09:25.669Z,93638.78
2023-01-17T03:11:53.104Z,93633.25
2023-01-17T03:14:20.458Z,93620.53
2023-01-17T03:16:47.719Z,93636.94
2023-01-17T03:19:17.395Z,93618.75
2023-01-17T03:21:44.351Z,93615.41
2023-01-17T03:24:11.279Z,93620.63
2023-01-17T03:26:38.273Z,93601.69
2023-01-17T03:29:05.224Z,93623.19
2023-01-17T03:31:32.210Z,93627.47
2023-01-17T03:33:59.220Z,93638.50
2023-01-17T03:36:26.102Z,93650.91
2023-01-17T03:38:53.148Z,93642.75
2023-01-17T03:41:20.185Z,93638.78
2023-01-17T03:43:47.235Z,93644.06
2023-01-17T03:46:23.507Z,93621.81
2023-01-17T03:48:51.071Z,93634.53
2023-01-17T03:51:19.085Z,93644.59
2023-01-17T03:53:52.132Z,93637.69
2023-01-17T03:56:19.277Z,93638.63
2023-01-17T03:58:46.097Z,93625.50
2023-01-17T04:01:13.519Z,93626.91
2023-01-17T04:03:40.819Z,93629.06
2023-01-17T04:06:07.833Z,93621.31
2023-01-17T04:08:34.907Z,93633.47
2023-01-17T04:11:02.364Z,93648.91
2023-01-17T04:13:29.731Z,93660.66
2023-01-17T04:15:56.785Z,93657.06
2023-01-17T04:18:24.612Z,93656.31
2023-01-17T04:20:51.749Z,93642.91
2023-01-17T04:23:19.170Z,93685.19
2023-01-17T04:25:48.103Z,93670.44
2023-01-17T04:28:15.133Z,93692.50
2023-01-17T04:30:42.179Z,93650.00
2023-01-17T04:33:09.241Z,93669.25
2023-01-17T04:35:36.315Z,93662.91
2023-01-17T04:38:03.352Z,93663.72
2023-01-17T04:40:30.321Z,93645.78
2023-01-17T04:42:58.319Z,93688.69
2023-01-17T04:45:25.536Z,93676.47
2023-01-17T04:47:52.598Z,93681.06
2023-01-17T04:50:19.835Z,93677.28
2023-01-17T04:52:46.739Z,93667.34
2023-01-17T04:55:13.843Z,93672.44
2023-01-17T04:57:40.790Z,93702.56
2023-01-17T05:00:08.626Z,93695.06
2023-01-17T05:02:35.619Z,93705.38
2023-01-17T05:05:02.588Z,93707.28
2023-01-17T05:07:30.472Z,93703.22
2023-01-17T05:09:57.777Z,93687.84
2023-01-17T05:12:24.681Z,93713.47
2023-01-17T05:14:51.689Z,93710.00
2023-01-17T05:17:18.940Z,93704.75
2023-01-17T05:19:46.359Z,93699.22
2023-01-17T05:22:17.193Z,93737.31
2023-01-17T05:24:46.452Z,93697.56
2023-01-17T05:27:14.730Z,93702.13
2023-01-17T05:29:41.856Z,93684.50
2023-01-17T05:32:08.806Z,93700.91
2023-01-17T05:34:35.789Z,93687.00
2023-01-17T05:37:02.673Z,93665.00
2023-01-17T05:39:31.081Z,93689.81
2023-01-17T05:41:59.266Z,93683.53
2023-01-17T05:44:27.709Z,93692.56
2023-01-17T05:46:55.911Z,93674.59
2023-01-17T05:49:23.023Z,93696.22
2023-01-17T05:51:50.166Z,93681.94
2023-01-17T05:54:17.206Z,93686.63
2023-01-17T05:56:46.792Z,93643.09
2023-01-17T05:59:17.249Z,93617.22
2023-01-17T06:01:46.489Z,93638.03
2023-01-17T06:04:13.848Z,93649.00
2023-01-17T06:06:40.866Z,93648.31
2023-01-17T06:09:07.871Z,93649.56
2023-01-17T06:11:34.889Z,93636.13
2023-01-17T06:14:01.743Z,93632.94
2023-01-17T06:16:29.869Z,93630.06
2023-01-17T06:18:56.867Z,93622.94
2023-01-17T06:21:23.913Z,93632.53
2023-01-17T06:23:50.897Z,93614.81
2023-01-17T06:26:17.889Z,93596.94
2023-01-17T06:28:44.843Z,93633.19
2023-01-17T06:31:11.920Z,93644.72
2023-01-17T06:33:38.916Z,93658.63
2023-01-17T06:36:06.543Z,93655.47
2023-01-17T06:38:33.555Z,93605.38
2023-01-17T06:41:04.388Z,93675.63
2023-01-17T06:43:33.757Z,93668.84
2023-01-17T06:46:01.594Z,93674.28
2023-01-17T06:48:28.713Z,93681.03
2023-01-17T06:50:57.563Z,93687.69
2023-01-17T06:53:24.748Z,93670.50
2023-01-17T06:55:52.613Z,93694.44
2023-01-17T06:58:19.498Z,93692.25
2023-01-17T07:00:46.609Z,93682.78
2023-01-17T07:03:22.177Z,93706.88
2023-01-17T07:05:50.134Z,93697.31
2023-01-17T07:08:18.131Z,93687.59
2023-01-17T07:10:49.250Z,93691.09
2023-01-17T07:13:16.457Z,93701.47
2023-01-17T07:15:43.564Z,93671.25
2023-01-17T07:18:10.412Z,93688.03
2023-01-17T07:20:38.547Z,93672.22
2023-01-17T07:23:06.781Z,93691.16
2023-01-17T07:25:33.811Z,93679.25
2023-01-17T07:28:00.762Z,93654.00
2023-01-17T07:30:27.991Z,93680.91
2023-01-17T07:32:55.757Z,93703.06
2023-01-17T07:35:26.756Z,93707.56
2023-01-17T07:37:54.704Z,93707.59
2023-01-17T07:40:23.441Z,93702.31
2023-01-17T07:42:50.381Z,93706.16
2023-01-17T07:45:17.727Z,93632.25
2023-01-17T07:47:45.218Z,93683.69
2023-01-17T07:50:13.685Z,93690.97
2023-01-17T07:52:41.178Z,93694.66
2023-01-17T07:55:09.720Z,93693.91
2023-01-17T07:57:36.757Z,93682.47
2023-01-17T08:00:05.161Z,93694.97
2023-01-17T08:02:39.480Z,93682.47
2023-01-17T08:05:06.844Z,93687.81
2023-01-17T08:07:34.006Z,93700.28
2023-01-17T08:10:01.590Z,93707.19
2023-01-17T08:12:29.681Z,93694.91
2023-01-17T08:14:56.755Z,93702.91
2023-01-17T08:17:23.820Z,93705.50
2023-01-17T08:19:52.200Z,93712.41
2023-01-17T08:22:19.253Z,93676.19
2023-01-17T08:24:46.247Z,93716.81
2023-01-17T08:27:13.379Z,93718.88
2023-01-17T08:29:46.861Z,93705.00
2023-01-17T08:32:15.186Z,93712.44
2023-01-17T08:34:42.455Z,93711.75
2023-01-17T08:37:09.671Z,93728.22
2023-01-17T08:39:36.787Z,93716.13
2023-01-17T08:42:03.945Z,93738.88
2023-01-17T08:44:31.187Z,93729.66
2023-01-17T08:46:58.387Z,93713.88
2023-01-17T08:49:25.533Z,93729.94
2023-01-17T08:51:52.788Z,93720.78
2023-01-17T08:54:19.951Z,93733.50
2023-01-17T08:56:47.649Z,93706.47
2023-01-17T08:59:14.824Z,93717.91
2023-01-17T09:01:46.233Z,93712.72
2023-01-17T09:04:15.149Z,93711.88
2023-01-17T09:06:45.344Z,93721.09
2023-01-17T09:09:13.962Z,93723.72
2023-01-17T09:11:41.144Z,93714.47
2023-01-17T09:14:08.155Z,93711.09
2023-01-17T09:16:35.278Z,93718.97
2023-01-17T09:19:02.405Z,93718.31
2023-01-17T09:21:29.417Z,93718.28
2023-01-17T09:23:56.473Z,93693.16
2023-01-17T09:26:28.794Z,93684.03
2023-01-17T09:28:56.908Z,93688.69
2023-01-17T09:31:24.944Z,93721.69
2023-01-17T09:33:53.388Z,93707.03
2023-01-17T09:36:22.947Z,93692.72
2023-01-17T09:38:55.385Z,93682.97
2023-01-17T09:41:30.009Z,93661.81
2023-01-17T09:44:02.927Z,93653.75
2023-01-17T09:46:33.704Z,93686.22
2023-01-17T09:49:17.871Z,93685.28
2023-01-17T09:51:46.255Z,93682.16
2023-01-17T09:54:23.025Z,93642.97
2023-01-17T09:57:03.179Z,93686.50
2023-01-17T10:00:02.983Z,93660.91
2023-01-17T10:02:52.655Z,93724.59
2023-01-17T10:05:44.569Z,93707.63
2023-01-17T10:08:28.890Z,93699.41
2023-01-17T10:11:19.363Z,93699.09
2023-01-17T10:13:55.512Z,93693.19
2023-01-17T10:16:32.019Z,93701.22
2023-01-17T10:19:33.229Z,93728.06
2023-01-17T10:22:15.646Z,93708.59
2023-01-17T10:25:01.337Z,93710.66
2023-01-17T10:27:34.118Z,93714.66
2023-01-17T10:30:23.503Z,93709.97
2023-01-17T10:32:50.808Z,93707.84
2023-01-17T10:35:22.934Z,93704.44
2023-01-17T10:37:56.719Z,93710.72
2023-01-17T10:40:43.032Z,93705.03
2023-01-17T10:43:44.215Z,93690.78
2023-01-17T10:46:28.675Z,93643.59
2023-01-17T10:48:56.851Z,93681.59
2023-01-17T10:51:49.973Z,93709.88
2023-01-17T10:54:36.144Z,93674.00
2023-01-17T10:57:03.214Z,93651.66
2023-01-17T10:59:33.597Z,93703.22
2023-01-17T11:02:07.124Z,93654.06
2023-01-17T11:04:47.497Z,93656.78
2023-01-17T11:07:26.292Z,93661.19
2023-01-17T11:09:56.404Z,93662.28
2023-01-17T11:12:35.147Z,93651.69
2023-01-17T11:15:11.302Z,93653.97
2023-01-17T11:17:44.839Z,93676.81
2023-01-17T11:20:12.340Z,93651.69
2023-01-17T11:22:39.499Z,93670.19
2023-01-17T11:25:07.255Z,93648.50
2023-01-17T11:27:38.561Z,93651.25
2023-01-17T11:30:18.352Z,93595.16
2023-01-17T11:32:55.946Z,93612.28
2023-01-17T11:35:26.847Z,93612.22
2023-01-17T11:38:03.144Z,93618.91
2023-01-17T11:40:36.627Z,93581.13
2023-01-17T11:43:14.409Z,93606.84
2023-01-17T11:45:42.052Z,93547.50
2023-01-17T11:48:09.047Z,93592.84
2023-01-17T11:50:57.869Z,93543.75
2023-01-17T11:53:32.255Z,93581.94
2023-01-17T11:55:59.319Z,93577.00
2023-01-17T11:58:27.747Z,93587.59
2023-01-17T12:01:10.727Z,93572.13
2023-01-17T12:03:40.765Z,93570.25
2023-01-17T12:06:25.134Z,93560.47
2023-01-17T12:09:12.729Z,93568.13
2023-01-17T12:12:18.285Z,93583.53
2023-01-17T12:15:14.589Z,93537.56
2023-01-17T12:18:06.202Z,93515.78
2023-01-17T12:20:46.536Z,93541.84
2023-01-17T12:23:51.129Z,93539.34
2023-01-17T12:26:36.960Z,93550.69
2023-01-17T12:29:28.896Z,93492.81
2023-01-17T12:32:34.929Z,93511.16
2023-01-17T12:35:27.546Z,93512.38
2023-01-17T12:38:05.023Z,93511.72
2023-01-17T12:40:39.580Z,93506.25
2023-01-17T12:43:24.885Z,93513.47
2023-01-17T12:45:52.866Z,93512.28
2023-01-17T12:48:22.548Z,93512.03
2023-01-17T12:51:29.081Z,93521.44
2023-01-17T12:54:19.893Z,93523.72
2023-01-17T12:56:58.077Z,93516.38
2023-01-17T12:59:38.124Z,93539.03
2023-01-17T13:02:20.717Z,93525.88
2023-01-17T13:04:59.405Z,93523.88
2023-01-17T13:07:47.639Z,93515.97
2023-01-17T13:10:24.128Z,93505.53
2023-01-17T13:12:51.877Z,93512.09
2023-01-17T13:15:25.041Z,93523.53
2023-01-17T13:18:03.017Z,93521.63
2023-01-17T13:20:56.480Z,93493.31
2023-01-17T13:23:40.262Z,93532.88
2023-01-17T13:26:25.973Z,93538.09
2023-01-17T13:29:16.015Z,93521.09
2023-01-17T13:31:51.835Z,93506.19
2023-01-17T13:34:53.419Z,93492.25
2023-01-17T13:37:50.316Z,93513.38
2023-01-17T13:40:31.095Z,93513.88
2023-01-17T13:43:00.162Z,93510.94
2023-01-17T13:45:31.177Z,93519.09
2023-01-17T13:48:18.793Z,93527.66
2023-01-17T13:50:49.587Z,93528.91
2023-01-17T13:53:46.488Z,93536.44
2023-01-17T13:56:19.636Z,93534.09
2023-01-17T13:58:54.642Z,93522.28
2023-01-17T14:01:24.592Z,93546.59
2023-01-17T14:03:51.936Z,93551.75
2023-01-17T14:06:44.908Z,93548.47
2023-01-17T14:09:23.109Z,93526.72
2023-01-17T14:12:14.115Z,93547.97
2023-01-17T14:14:41.917Z,93532.72
2023-01-17T14:17:36.533Z,93518.97
2023-01-17T14:20:06.232Z,93521.19
2023-01-17T14:22:41.588Z,93513.78
2023-01-17T14:25:19.658Z,93522.09
2023-01-17T14:27:50.485Z,93544.06
2023-01-17T14:30:18.080Z,93546.50
2023-01-17T14:33:16.076Z,93500.16
2023-01-17T14:35:53.172Z,93544.75
2023-01-17T14:38:34.260Z,93525.97
2023-01-17T14:41:11.924Z,93513.63
2023-01-17T14:43:42.443Z,93516.38
2023-01-17T14:46:32.267Z,93514.22
2023-01-17T14:49:05.874Z,93495.25
2023-01-17T14:51:35.695Z,93498.50
2023-01-17T14:54:13.594Z,93506.44
2023-01-17T14:56:40.569Z,93516.38
2023-01-17T14:59:22.297Z,93516.03
2023-01-17T15:02:07.128Z,93518.75
2023-01-17T15:04:39.763Z,93526.56
2023-01-17T15:07:12.663Z,93501.72
2023-01-17T15:09:43.185Z,93526.13
2023-01-17T15:12:16.611Z,93525.31
2023-01-17T15:14:45.909Z,93539.03
2023-01-17T15:17:16.261Z,93545.03
2023-01-17T15:19:55.699Z,93548.00
2023-01-17T15:22:23.748Z,93548.59
2023-01-17T15:24:51.005Z,93539.41
2023-01-17T15:27:20.033Z,93555.03
2023-01-17T15:29:48.609Z,93556.72
2023-01-17T15:32:31.263Z,93549.56
2023-01-17T15:35:02.523Z,93540.44
2023-01-17T15:37:33.426Z,93563.66
2023-01-17T15:40:16.831Z,93571.13
2023-01-17T15:42:46.989Z,93551.03
2023-01-17T15:45:29.057Z,93541.22
2023-01-17T15:47:56.185Z,93559.38
2023-01-17T15:50:30.543Z,93546.97
2023-01-17T15:52:57.595Z,93555.38
2023-01-17T15:55:30.655Z,93545.38
2023-01-17T15:57:57.753Z,93562.78
2023-01-17T16:00:37.804Z,93568.63
2023-01-17T16:03:20.056Z,93567.34
2023-01-17T16:05:48.304Z,93563.38
2023-01-17T16:08:16.409Z,93555.53
2023-01-17T16:10:44.334Z,93555.41
2023-01-17T16:13:12.916Z,93550.47
2023-01-17T16:15:42.320Z,93552.94
2023-01-17T16:18:24.625Z,93545.78
2023-01-17T16:21:05.583Z,93546.78
2023-01-17T16:23:32.581Z,93560.69
2023-01-17T16:25:59.556Z,93561.00
2023-01-17T16:28:26.560Z,93564.09
2023-01-17T16:30:54.063Z,93566.06
2023-01-17T16:33:21.319Z,93568.44
2023-01-17T16:35:51.323Z,93580.03
2023-01-17T16:38:19.907Z,93563.16
2023-01-17T16:40:48.005Z,93553.31
2023-01-17T16:43:17.211Z,93555.25
2023-01-17T16:45:52.234Z,93542.63
2023-01-17T16:48:20.381Z,93551.25
2023-01-17T16:50:50.807Z,93570.91
2023-01-17T16:53:26.724Z,93530.00
2023-01-17T16:55:57.869Z,93532.44
2023-01-17T16:58:25.275Z,93545.19
2023-01-17T17:00:52.547Z,93559.25
2023-01-17T17:03:21.227Z,93555.00
2023-01-17T17:05:56.606Z,93552.13
2023-01-17T17:08:24.299Z,93488.47
2023-01-17T17:10:51.659Z,93522.72
2023-01-17T17:13:18.796Z,93539.84
2023-01-17T17:15:46.073Z,93513.56
2023-01-17T17:18:17.852Z,93520.50
2023-01-17T17:20:46.165Z,93532.06
2023-01-17T17:23:13.231Z,93494.34
2023-01-17T17:25:40.310Z,93511.91
2023-01-17T17:28:07.350Z,93483.94
2023-01-17T17:30:36.144Z,93481.19
2023-01-17T17:33:04.681Z,93493.84
2023-01-17T17:35:34.797Z,93509.25
2023-01-17T17:38:02.009Z,93512.94
2023-01-17T17:40:29.159Z,93480.78
2023-01-17T17:42:56.077Z,93512.50
2023-01-17T17:45:23.030Z,93501.28
2023-01-17T17:47:54.438Z,93488.66
2023-01-17T17:50:21.629Z,93494.00
2023-01-17T17:52:49.341Z,93484.81
2023-01-17T17:55:19.046Z,93463.50
2023-01-17T17:57:46.518Z,93441.50
2023-01-17T18:00:13.892Z,93431.09
2023-01-17T18:02:40.860Z,93443.25
2023-01-17T18:05:08.196Z,93451.25
2023-01-17T18:07:35.452Z,93405.72
2023-01-17T18:10:03.792Z,93435.50
2023-01-17T18:12:30.949Z,93430.22
2023-01-17T18:14:58.268Z,93443.81
2023-01-17T18:17:25.194Z,93442.44
2023-01-17T18:19:52.665Z,93411.22
2023-01-17T18:22:19.649Z,93432.53
2023-01-17T18:24:46.966Z,93432.06
2023-01-17T18:27:14.255Z,93437.94
2023-01-17T18:29:41.391Z,93421.69
2023-01-17T18:32:08.681Z,93404.06
2023-01-17T18:34:39.271Z,93440.41
2023-01-17T18:37:06.282Z,93437.63
2023-01-17T18:39:33.984Z,93443.78
2023-01-17T18:42:01.022Z,93419.16
2023-01-17T18:44:28.238Z,93427.31
2023-01-17T18:46:56.024Z,93417.88
2023-01-17T18:49:23.178Z,93415.25
2023-01-17T18:51:51.537Z,93421.16
2023-01-17T18:54:20.151Z,93426.44
2023-01-17T18:56:47.266Z,93445.38
2023-01-17T18:59:16.258Z,93416.31
2023-01-17T19:01:43.794Z,93434.06
2023-01-17T19:04:13.282Z,93414.44
2023-01-17T19:06:43.019Z,93421.47
2023-01-17T19:09:10.783Z,93434.06
2023-01-17T19:11:38.154Z,93445.84
2023-01-17T19:14:06.760Z,93471.16
2023-01-17T19:16:39.631Z,93449.44
2023-01-17T19:19:15.169Z,93426.28
2023-01-17T19:21:42.782Z,93440.34
2023-01-17T19:24:13.317Z,93421.00
2023-01-17T19:26:41.101Z,93424.13
2023-01-17T19:29:08.527Z,93416.19
2023-01-17T19:31:43.162Z,93406.53
2023-01-17T19:34:11.650Z,93419.88
2023-01-17T19:36:39.315Z,93416.75
2023-01-17T19:39:09.465Z,93354.91
2023-01-17T19:41:42.139Z,93385.91
2023-01-17T19:44:13.407Z,93365.13
2023-01-17T19:46:40.557Z,93418.94
2023-01-17T19:49:09.345Z,93410.63
2023-01-17T19:51:40.081Z,93442.09
2023-01-17T19:54:08.391Z,93428.56
2023-01-17T19:56:35.515Z,93418.66
2023-01-17T19:59:03.717Z,93389.13
2023-01-17T20:01:32.697Z,93396.19
2023-01-17T20:04:01.261Z,93393.22
2023-01-17T20:06:31.069Z,93418.09
2023-01-17T20:08:58.125Z,93434.09
2023-01-17T20:11:27.927Z,93414.13
2023-01-17T20:13:58.007Z,93399.13
2023-01-17T20:16:27.278Z,93414.91
2023-01-17T20:18:54.816Z,93401.31
2023-01-17T20:21:24.729Z,93413.69
2023-01-17T20:23:54.476Z,93383.66
2023-01-17T20:26:31.680Z,93398.25
2023-01-17T20:28:58.658Z,93394.59
2023-01-17T20:31:26.177Z,93373.41
2023-01-17T20:33:55.297Z,93368.72
2023-01-17T20:36:24.826Z,93413.53
2023-01-17T20:38:53.431Z,93399.94
2023-01-17T20:41:23.701Z,93370.13
2023-01-17T20:43:55.354Z,93401.03
2023-01-17T20:46:27.297Z,93394.41
2023-01-17T20:48:57.958Z,93425.03
2023-01-17T20:51:27.454Z,93394.69
2023-01-17T20:54:02.803Z,93386.34
2023-01-17T20:56:34.634Z,93403.00
2023-01-17T20:59:06.329Z,93307.78
2023-01-17T21:01:34.951Z,93383.97
2023-01-17T21:04:03.463Z,93397.56
2023-01-17T21:06:31.422Z,93396.56
2023-01-17T21:08:59.841Z,93387.06
2023-01-17T21:11:27.833Z,93409.16
2023-01-17T21:13:55.212Z,93354.75
2023-01-17T21:16:23.195Z,93367.25
2023-01-17T21:18:51.939Z,93322.84
2023-01-17T21:21:24.340Z,93375.16
2023-01-17T21:23:53.813Z,93355.81
2023-01-17T21:26:22.875Z,93399.06
2023-01-17T21:28:50.917Z,93381.72
2023-01-17T21:31:25.365Z,93385.19
2023-01-17T21:33:53.702Z,93364.13
2023-01-17T21:36:23.245Z,93393.69
2023-01-17T21:38:52.367Z,93417.38
2023-01-17T21:41:25.589Z,93328.19
2023-01-17T21:44:03.368Z,93386.22
2023-01-17T21:46:30.862Z,93378.19
2023-01-17T21:48:57.973Z,93348.94
2023-01-17T21:51:45.471Z,93384.22
2023-01-17T21:54:12.644Z,93369.59
2023-01-17T21:56:58.241Z,93365.44
2023-01-17T21:59:25.377Z,93337.00
2023-01-17T22:01:52.488Z,93357.31
2023-01-17T22:04:21.927Z,93374.47
2023-01-17T22:06:49.011Z,93367.03
2023-01-17T22:09:16.071Z,93367.22
2023-01-17T22:11:43.209Z,93336.66
2023-01-17T22:14:10.322Z,93353.78
2023-01-17T22:16:37.320Z,93341.97
2023-01-17T22:19:04.413Z,93360.53
2023-01-17T22:21:32.698Z,93357.41
2023-01-17T22:24:00.327Z,93352.19
2023-01-17T22:26:30.329Z,93370.91
2023-01-17T22:29:00.942Z,93389.38
2023-01-17T22:31:28.811Z,93365.72
2023-01-17T22:34:02.489Z,93388.81
2023-01-17T22:36:33.875Z,93404.34
2023-01-17T22:39:03.976Z,93398.59
2023-01-17T22:41:32.989Z,93385.69
2023-01-17T22:44:05.572Z,93355.13
2023-01-17T22:46:35.759Z,93372.75
2023-01-17T22:49:05.892Z,93358.53
2023-01-17T22:51:33.003Z,93357.00
2023-01-17T22:54:01.329Z,93355.31
2023-01-17T22:56:32.089Z,93328.16
2023-01-17T22:59:00.969Z,93353.84
2023-01-17T23:01:33.015Z,93381.63
2023-01-17T23:04:03.694Z,93365.34
2023-01-17T23:06:37.093Z,93368.31
2023-01-17T23:09:10.893Z,93374.03
2023-01-17T23:11:42.490Z,93380.34
2023-01-17T23:14:25.660Z,93402.19
2023-01-17T23:17:12.811Z,93370.59
2023-01-17T23:19:47.909Z,93358.91
2023-01-17T23:22:24.282Z,93383.91
2023-01-17T23:25:00.652Z,93346.47
2023-01-17T23:27:58.569Z,93344.16
2023-01-17T23:30:29.194Z,93326.19
2023-01-17T23:32:59.393Z,93342.06
2023-01-17T23:35:29.904Z,93342.94
2023-01-17T23:38:16.319Z,93335.03
2023-01-17T23:40:43.936Z,93334.91
2023-01-17T23:43:23.365Z,93338.13
2023-01-17T23:45:51.154Z,93365.97
2023-01-17T23:48:19.142Z,93347.47
2023-01-17T23:50:47.822Z,93349.94
2023-01-17T23:53:24.010Z,93345.72
2023-01-17T23:55:53.798Z,93314.84
2023-01-17T23:58:23.982Z,93326.13
